createdAt,value
2018-09-17T00:02:05.869Z,11.03
2018-09-17T00:04:41.233Z,10.58
2018-09-17T00:07:16.763Z,13.22
2018-09-17T00:09:52.238Z,11.12
2018-09-17T00:12:27.956Z,8.58
2018-09-17T00:15:03.153Z,10.35
2018-09-17T00:17:39.252Z,11.00
2018-09-17T00:20:15.364Z,6.05
2018-09-17T00:22:50.757Z,10.00
2018-09-17T00:25:26.296Z,12.18
2018-09-17T00:28:01.856Z,9.75
2018-09-17T00:30:37.345Z,11.40
2018-09-17T00:33:12.952Z,11.28
2018-09-17T00:35:48.127Z,9.88
2018-09-17T00:38:23.637Z,8.48
2018-09-17T00:40:58.929Z,8.08
2018-09-17T00:43:34.361Z,8.08
2018-09-17T00:46:09.689Z,5.03
2018-09-17T00:48:45.347Z,8.40
2018-09-17T00:51:21.357Z,8.80
2018-09-17T00:53:56.718Z,8.05
2018-09-17T00:56:32.032Z,6.90
2018-09-17T00:59:07.912Z,5.58
2018-09-17T01:01:43.203Z,8.28
2018-09-17T01:04:18.809Z,5.65
2018-09-17T01:06:54.420Z,6.50
2018-09-17T01:09:35.737Z,9.38
2018-09-17T01:12:12.718Z,7.72
2018-09-17T01:14:48.156Z,5.53
2018-09-17T01:17:23.812Z,7.00
2018-09-17T01:19:59.493Z,5.40
2018-09-17T01:22:34.705Z,5.40
2018-09-17T01:25:10.354Z,5.15
2018-09-17T01:27:45.556Z,6.83
2018-09-17T01:30:21.088Z,5.10
2018-09-17T01:32:56.600Z,6.70
2018-09-17T01:35:32.310Z,6.28
2018-09-17T01:38:07.770Z,5.10
2018-09-17T01:40:43.244Z,4.90
2018-09-17T01:43:19.266Z,5.75
2018-09-17T01:45:54.711Z,5.40
2018-09-17T01:48:30.027Z,5.72
2018-09-17T01:51:05.829Z,6.25
2018-09-17T01:53:41.144Z,6.17
2018-09-17T01:56:17.033Z,5.80
2018-09-17T01:58:52.504Z,5.67
2018-09-17T02:01:28.129Z,5.15
2018-09-17T02:04:10.142Z,5.20
2018-09-17T02:06:45.741Z,5.35
2018-09-17T02:09:21.197Z,5.65
2018-09-17T02:11:56.826Z,5.35
2018-09-17T02:14:32.260Z,5.00
2018-09-17T02:17:08.269Z,6.05
2018-09-17T02:19:43.578Z,5.80
2018-09-17T02:22:19.181Z,5.42
2018-09-17T02:24:54.601Z,5.78
2018-09-17T02:27:30.164Z,5.25
2018-09-17T02:30:05.797Z,5.95
2018-09-17T02:32:41.464Z,5.50
2018-09-17T02:35:16.820Z,5.78
2018-09-17T02:37:52.341Z,5.78
2018-09-17T02:40:27.690Z,5.83
2018-09-17T02:43:03.240Z,5.80
2018-09-17T02:45:38.732Z,6.17
2018-09-17T02:48:14.122Z,5.50
2018-09-17T02:50:49.636Z,5.90
2018-09-17T02:53:25.350Z,6.67
2018-09-17T02:56:00.579Z,6.35
2018-09-17T02:58:36.010Z,6.30
2018-09-17T03:01:11.374Z,6.17
2018-09-17T03:03:46.716Z,6.12
2018-09-17T03:06:22.173Z,6.15
2018-09-17T03:08:57.585Z,8.13
2018-09-17T03:11:32.908Z,6.92
2018-09-17T03:14:08.305Z,6.50
2018-09-17T03:17:00.788Z,7.10
2018-09-17T03:19:36.687Z,5.70
2018-09-17T03:22:12.809Z,6.35
2018-09-17T03:24:48.277Z,6.60
2018-09-17T03:27:23.749Z,7.10
2018-09-17T03:29:59.369Z,6.85
2018-09-17T03:32:34.794Z,6.08
2018-09-17T03:35:10.260Z,6.62
2018-09-17T03:37:45.709Z,5.90
2018-09-17T03:40:21.149Z,6.70
2018-09-17T03:42:56.652Z,6.30
2018-09-17T03:45:32.109Z,5.25
2018-09-17T03:48:07.320Z,7.22
2018-09-17T03:50:42.826Z,7.20
2018-09-17T03:53:18.184Z,8.00
2018-09-17T03:55:53.819Z,6.67
2018-09-17T03:58:29.948Z,6.22
2018-09-17T04:01:05.945Z,6.65
2018-09-17T04:03:41.361Z,7.37
2018-09-17T04:06:16.924Z,6.95
2018-09-17T04:08:52.129Z,7.10
2018-09-17T04:11:28.028Z,6.53
2018-09-17T04:14:03.360Z,6.70
2018-09-17T04:16:39.330Z,6.50
2018-09-17T04:19:14.508Z,6.58
2018-09-17T04:21:50.006Z,6.30
2018-09-17T04:24:25.458Z,7.28
2018-09-17T04:27:00.902Z,6.90
2018-09-17T04:29:36.265Z,7.00
2018-09-17T04:32:12.001Z,7.10
2018-09-17T04:34:47.773Z,7.53
2018-09-17T04:37:23.288Z,6.85
2018-09-17T04:39:58.750Z,7.17
2018-09-17T04:42:34.494Z,7.65
2018-09-17T04:45:09.943Z,6.97
2018-09-17T04:47:45.596Z,6.62
2018-09-17T04:50:21.099Z,7.08
2018-09-17T04:52:56.880Z,6.90
2018-09-17T04:55:32.158Z,7.05
2018-09-17T04:58:07.581Z,7.03
2018-09-17T05:00:43.081Z,7.67
2018-09-17T05:03:18.669Z,7.95
2018-09-17T05:05:53.891Z,7.37
2018-09-17T05:08:29.574Z,7.47
2018-09-17T05:11:05.030Z,7.80
2018-09-17T05:13:40.568Z,9.15
2018-09-17T05:16:15.965Z,8.78
2018-09-17T05:18:51.845Z,8.98
2018-09-17T05:21:27.009Z,9.18
2018-09-17T05:24:02.447Z,8.58
2018-09-17T05:26:39.093Z,8.38
2018-09-17T05:29:14.557Z,7.30
2018-09-17T05:31:49.769Z,8.00
2018-09-17T05:34:25.145Z,8.85
2018-09-17T05:37:00.626Z,8.63
2018-09-17T05:39:36.142Z,7.97
2018-09-17T05:42:11.556Z,8.38
2018-09-17T05:44:47.348Z,8.53
2018-09-17T05:47:22.665Z,8.30
2018-09-17T05:49:58.316Z,8.28
2018-09-17T05:52:33.601Z,7.92
2018-09-17T05:55:09.714Z,7.85
2018-09-17T05:57:45.366Z,8.65
2018-09-17T06:00:21.317Z,8.18
2018-09-17T06:02:58.385Z,9.60
2018-09-17T06:05:34.030Z,9.23
2018-09-17T06:08:09.509Z,8.88
2018-09-17T06:10:45.057Z,8.60
2018-09-17T06:13:20.321Z,9.03
2018-09-17T06:15:55.876Z,9.18
2018-09-17T06:18:31.532Z,8.58
2018-09-17T06:21:07.648Z,8.63
2018-09-17T06:23:42.934Z,9.08
2018-09-17T06:26:18.446Z,10.38
2018-09-17T06:28:53.718Z,9.28
2018-09-17T06:31:29.124Z,9.50
2018-09-17T06:34:04.509Z,10.95
2018-09-17T06:36:39.926Z,8.58
2018-09-17T06:39:15.188Z,10.10
2018-09-17T06:41:50.810Z,9.50
2018-09-17T06:44:26.118Z,8.23
2018-09-17T06:47:08.284Z,8.63
2018-09-17T06:49:43.625Z,9.83
2018-09-17T06:52:19.753Z,9.53
2018-09-17T06:54:55.147Z,9.30
2018-09-17T06:57:30.953Z,9.27
2018-09-17T07:00:06.634Z,9.47
2018-09-17T07:02:42.256Z,9.10
2018-09-17T07:05:17.580Z,9.00
2018-09-17T07:07:53.144Z,9.20
2018-09-17T07:10:28.385Z,9.23
2018-09-17T07:13:03.825Z,9.43
2018-09-17T07:15:39.618Z,8.87
2018-09-17T07:18:15.333Z,9.73
2018-09-17T07:20:50.656Z,8.67
2018-09-17T07:23:26.702Z,9.00
2018-09-17T07:26:02.162Z,9.60
2018-09-17T07:28:37.828Z,8.70
2018-09-17T07:31:13.341Z,9.50
2018-09-17T07:33:48.830Z,11.17
2018-09-17T07:36:24.252Z,9.33
2018-09-17T07:38:59.716Z,9.73
2018-09-17T07:41:35.195Z,8.80
2018-09-17T07:44:10.812Z,10.67
2018-09-17T07:46:46.314Z,10.00
2018-09-17T07:49:21.698Z,9.90
2018-09-17T07:51:57.017Z,8.87
2018-09-17T07:54:32.691Z,8.50
2018-09-17T07:57:07.865Z,8.40
2018-09-17T07:59:43.413Z,8.03
2018-09-17T08:02:18.665Z,7.17
2018-09-17T08:04:54.225Z,6.50
2018-09-17T08:07:29.362Z,7.13
2018-09-17T08:10:05.137Z,6.50
2018-09-17T08:12:40.524Z,7.30
2018-09-17T08:15:16.329Z,7.13
2018-09-17T08:17:52.754Z,7.23
2018-09-17T08:20:28.369Z,6.33
2018-09-17T08:23:03.695Z,6.60
2018-09-17T08:25:39.145Z,6.20
2018-09-17T08:28:14.541Z,6.13
2018-09-17T08:30:50.456Z,7.13
2018-09-17T08:33:25.780Z,8.60
2018-09-17T08:36:01.245Z,5.37
2018-09-17T08:38:36.863Z,7.57
2018-09-17T08:41:12.253Z,5.60
2018-09-17T08:43:48.191Z,8.00
2018-09-17T08:46:23.675Z,8.60
2018-09-17T08:48:59.194Z,11.00
2018-09-17T08:51:34.614Z,5.67
2018-09-17T08:54:10.909Z,5.70
2018-09-17T08:56:55.444Z,6.47
2018-09-17T08:59:36.004Z,5.70
2018-09-17T09:02:17.272Z,5.03
2018-09-17T09:04:55.093Z,5.43
2018-09-17T09:07:36.242Z,6.20
2018-09-17T09:10:25.896Z,5.57
2018-09-17T09:13:06.836Z,5.13
2018-09-17T09:15:42.684Z,5.23
2018-09-17T09:18:18.236Z,5.53
2018-09-17T09:20:53.685Z,7.17
2018-09-17T09:23:29.334Z,7.70
2018-09-17T09:26:04.780Z,4.93
2018-09-17T09:28:40.332Z,4.40
2018-09-17T09:31:15.892Z,5.20
2018-09-17T09:33:51.629Z,5.17
2018-09-17T09:36:26.848Z,4.80
2018-09-17T09:39:02.338Z,4.57
2018-09-17T09:41:37.690Z,4.87
2018-09-17T09:44:13.408Z,4.90
2018-09-17T09:46:48.786Z,4.47
2018-09-17T09:49:24.430Z,4.50
2018-09-17T09:51:59.770Z,4.73
2018-09-17T09:54:35.597Z,4.60
2018-09-17T09:57:11.036Z,4.10
2018-09-17T09:59:46.595Z,4.23
2018-09-17T10:02:27.339Z,4.70
2018-09-17T10:05:03.212Z,4.40
2018-09-17T10:07:38.459Z,5.50
2018-09-17T10:10:19.331Z,5.37
2018-09-17T10:12:59.933Z,5.10
2018-09-17T10:15:40.876Z,4.60
2018-09-17T10:19:24.449Z,4.10
2018-09-17T10:22:00.171Z,4.80
2018-09-17T10:24:35.629Z,3.93
2018-09-17T10:27:11.150Z,5.43
2018-09-17T10:29:46.594Z,5.20
2018-09-17T10:32:22.125Z,4.70
2018-09-17T10:34:57.444Z,9.37
2018-09-17T10:37:32.932Z,4.27
2018-09-17T10:40:08.301Z,4.80
2018-09-17T10:42:44.028Z,5.07
2018-09-17T10:45:19.196Z,4.60
2018-09-17T10:47:54.813Z,5.43
2018-09-17T10:50:29.987Z,4.83
2018-09-17T10:53:05.697Z,5.60
2018-09-17T10:55:41.170Z,4.80
2018-09-17T10:58:16.798Z,4.83
2018-09-17T11:00:52.020Z,5.30
2018-09-17T11:03:27.580Z,4.10
2018-09-17T11:06:02.860Z,4.30
2018-09-17T11:08:38.505Z,4.67
2018-09-17T11:11:14.008Z,4.03
2018-09-17T11:13:49.360Z,4.60
2018-09-17T11:16:24.804Z,3.80
2018-09-17T11:19:00.665Z,3.63
2018-09-17T11:21:36.113Z,3.73
2018-09-17T11:24:11.872Z,4.17
2018-09-17T11:26:47.225Z,3.50
2018-09-17T11:29:22.644Z,4.00
2018-09-17T11:31:58.079Z,3.43
2018-09-17T11:34:33.557Z,3.43
2018-09-17T11:37:08.957Z,3.00
2018-09-17T11:39:44.651Z,3.77
2018-09-17T11:42:20.089Z,4.40
2018-09-17T11:44:55.628Z,4.57
2018-09-17T11:47:30.776Z,3.80
2018-09-17T11:50:06.312Z,8.27
2018-09-17T11:52:41.657Z,6.07
2018-09-17T11:55:17.205Z,3.37
2018-09-17T11:57:52.654Z,3.97
2018-09-17T12:00:33.524Z,4.63
2018-09-17T12:04:13.496Z,5.23
2018-09-17T12:06:54.380Z,3.17
2018-09-17T12:09:29.776Z,3.43
2018-09-17T12:12:05.240Z,3.03
2018-09-17T12:14:40.686Z,3.40
2018-09-17T12:17:16.241Z,3.97
2018-09-17T12:19:51.896Z,4.20
2018-09-17T12:22:27.665Z,3.23
2018-09-17T12:25:03.079Z,2.90
2018-09-17T12:27:38.833Z,4.23
2018-09-17T12:30:14.125Z,3.07
2018-09-17T12:32:49.692Z,4.80
2018-09-17T12:35:24.917Z,3.30
2018-09-17T12:38:00.414Z,2.40
2018-09-17T12:40:35.771Z,3.30
2018-09-17T12:43:11.405Z,4.47
2018-09-17T12:45:46.943Z,2.93
2018-09-17T12:48:22.705Z,4.60
2018-09-17T12:50:58.055Z,3.90
2018-09-17T12:53:33.580Z,3.30
2018-09-17T12:56:09.012Z,2.90
2018-09-17T12:58:44.475Z,2.77
2018-09-17T13:01:19.909Z,3.60
2018-09-17T13:03:55.580Z,3.87
2018-09-17T13:06:31.102Z,3.03
2018-09-17T13:09:08.992Z,2.73
2018-09-17T13:11:44.415Z,3.40
2018-09-17T13:14:20.025Z,3.47
2018-09-17T13:16:55.349Z,3.00
2018-09-17T13:19:30.912Z,3.20
2018-09-17T13:22:06.220Z,2.50
2018-09-17T13:24:41.879Z,2.80
2018-09-17T13:27:17.844Z,3.23
2018-09-17T13:29:54.033Z,3.60
2018-09-17T13:32:29.440Z,3.40
2018-09-17T13:35:05.149Z,2.60
2018-09-17T13:37:40.597Z,3.40
2018-09-17T13:40:16.141Z,6.93
2018-09-17T13:42:51.461Z,3.33
2018-09-17T13:45:27.145Z,3.87
2018-09-17T13:48:02.428Z,3.20
2018-09-17T13:50:38.108Z,3.13
2018-09-17T13:53:13.494Z,2.80
2018-09-17T13:55:48.997Z,2.73
2018-09-17T13:58:24.297Z,3.30
2018-09-17T14:01:00.374Z,3.13
2018-09-17T14:03:35.661Z,2.77
2018-09-17T14:06:11.254Z,3.17
2018-09-17T14:08:46.616Z,3.50
2018-09-17T14:11:22.272Z,3.43
2018-09-17T14:13:57.612Z,3.60
2018-09-17T14:16:34.526Z,4.43
2018-09-17T14:19:10.148Z,4.50
2018-09-17T14:21:45.803Z,3.60
2018-09-17T14:24:21.104Z,2.90
2018-09-17T14:26:56.590Z,5.03
2018-09-17T14:29:32.043Z,2.83
2018-09-17T14:32:12.902Z,4.10
2018-09-17T14:34:48.281Z,2.50
2018-09-17T14:37:23.805Z,4.13
2018-09-17T14:39:59.097Z,3.87
2018-09-17T14:42:34.576Z,6.30
2018-09-17T14:45:10.005Z,4.83
2018-09-17T14:47:45.592Z,3.80
2018-09-17T14:50:20.789Z,2.63
2018-09-17T14:52:56.556Z,3.13
2018-09-17T14:55:31.805Z,3.40
2018-09-17T14:58:07.496Z,4.93
2018-09-17T15:00:42.993Z,4.50
2018-09-17T15:03:18.758Z,3.10
2018-09-17T15:05:54.229Z,3.90
2018-09-17T15:08:29.686Z,3.10
2018-09-17T15:11:05.012Z,3.63
2018-09-17T15:13:41.596Z,3.30
2018-09-17T15:16:17.108Z,3.90
2018-09-17T15:18:52.558Z,5.03
2018-09-17T15:21:27.969Z,2.83
2018-09-17T15:24:03.628Z,2.83
2018-09-17T15:26:38.799Z,2.80
2018-09-17T15:29:14.440Z,5.97
2018-09-17T15:31:49.894Z,3.07
2018-09-17T15:34:25.600Z,2.57
2018-09-17T15:37:01.106Z,9.20
2018-09-17T15:39:36.542Z,3.40
2018-09-17T15:42:11.994Z,3.60
2018-09-17T15:44:47.616Z,3.10
2018-09-17T15:47:22.845Z,2.37
2018-09-17T15:49:58.452Z,3.57
2018-09-17T15:52:33.888Z,2.53
2018-09-17T15:55:09.306Z,2.80
2018-09-17T15:57:44.506Z,3.20
2018-09-17T16:00:19.985Z,2.70
2018-09-17T16:02:55.501Z,2.70
2018-09-17T16:05:31.082Z,3.90
2018-09-17T16:08:07.223Z,3.27
2018-09-17T16:10:42.602Z,3.73
2018-09-17T16:13:18.029Z,2.63
2018-09-17T16:15:53.988Z,2.90
2018-09-17T16:18:29.452Z,3.60
2018-09-17T16:21:06.093Z,2.80
2018-09-17T16:23:41.544Z,2.60
2018-09-17T16:26:17.257Z,2.63
2018-09-17T16:28:52.587Z,3.13
2018-09-17T16:31:28.454Z,2.50
2018-09-17T16:34:03.811Z,2.73
2018-09-17T16:36:39.552Z,2.60
2018-09-17T16:39:15.114Z,2.77
2018-09-17T16:41:50.893Z,3.10
2018-09-17T16:44:26.374Z,3.13
2018-09-17T16:47:02.659Z,3.20
2018-09-17T16:49:37.986Z,2.63
2018-09-17T16:52:13.713Z,2.40
2018-09-17T16:54:49.322Z,2.67
2018-09-17T16:57:25.540Z,3.17
2018-09-17T17:00:00.941Z,3.30
2018-09-17T17:02:36.512Z,2.80
2018-09-17T17:05:11.939Z,2.40
2018-09-17T17:07:47.768Z,3.60
2018-09-17T17:10:23.269Z,2.90
2018-09-17T17:12:58.797Z,2.70
2018-09-17T17:15:34.129Z,3.07
2018-09-17T17:18:10.286Z,3.13
2018-09-17T17:20:47.018Z,3.57
2018-09-17T17:23:22.830Z,3.70
2018-09-17T17:25:58.145Z,4.17
2018-09-17T17:28:33.926Z,4.80
2018-09-17T17:31:09.304Z,5.53
2018-09-17T17:33:45.008Z,5.30
2018-09-17T17:36:20.288Z,7.23
2018-09-17T17:38:55.919Z,9.20
2018-09-17T17:41:31.120Z,8.53
2018-09-17T17:44:06.596Z,8.10
2018-09-17T17:46:41.961Z,6.83
2018-09-17T17:49:17.596Z,7.10
2018-09-17T17:51:53.034Z,7.90
2018-09-17T17:54:28.490Z,11.93
2018-09-17T17:57:03.925Z,9.87
2018-09-17T17:59:39.378Z,10.30
2018-09-17T18:02:14.931Z,12.30
2018-09-17T18:04:50.657Z,13.80
2018-09-17T18:07:26.166Z,16.23
2018-09-17T18:10:02.394Z,14.20
2018-09-17T18:12:37.641Z,9.60
2018-09-17T18:15:13.188Z,12.73
2018-09-17T18:17:48.416Z,10.50
2018-09-17T18:20:24.161Z,8.50
2018-09-17T18:23:00.114Z,9.40
2018-09-17T18:25:35.665Z,7.93
2018-09-17T18:28:11.004Z,12.13
2018-09-17T18:30:46.553Z,11.13
2018-09-17T18:33:22.037Z,10.20
2018-09-17T18:35:57.554Z,9.90
2018-09-17T18:38:32.917Z,9.67
2018-09-17T18:41:08.495Z,10.23
2018-09-17T18:43:43.668Z,20.70
2018-09-17T18:46:19.396Z,37.50
2018-09-17T18:48:54.843Z,40.90
2018-09-17T18:51:30.392Z,39.20
2018-09-17T18:54:05.712Z,46.97
2018-09-17T18:56:41.362Z,41.37
2018-09-17T18:59:16.845Z,33.27
2018-09-17T19:01:52.513Z,41.20
2018-09-17T19:04:28.029Z,38.98
2018-09-17T19:07:03.408Z,39.40
2018-09-17T19:09:44.095Z,50.70
2018-09-17T19:12:20.844Z,50.20
2018-09-17T19:15:01.333Z,58.13
2018-09-17T19:17:42.153Z,44.40
2018-09-17T19:20:20.929Z,29.80
2018-09-17T19:23:01.792Z,50.23
2018-09-17T19:25:37.175Z,35.55
2018-09-17T19:28:17.997Z,37.40
2018-09-17T19:30:53.336Z,66.22
2018-09-17T19:33:28.987Z,31.82
2018-09-17T19:36:04.505Z,68.97
2018-09-17T19:38:45.212Z,36.65
2018-09-17T19:41:20.561Z,53.05
2018-09-17T19:43:56.493Z,66.07
2018-09-17T19:46:31.889Z,44.13
2018-09-17T19:49:07.533Z,52.43
2018-09-17T19:51:48.021Z,22.45
2018-09-17T19:54:23.567Z,57.25
2018-09-17T19:56:59.007Z,39.05
2018-09-17T19:59:39.856Z,56.40
2018-09-17T20:02:15.283Z,47.43
2018-09-17T20:04:56.132Z,50.75
2018-09-17T20:07:31.542Z,51.08
2018-09-17T20:10:07.131Z,53.70
2018-09-17T20:12:42.556Z,65.28
2018-09-17T20:15:18.439Z,62.80
2018-09-17T20:17:54.013Z,19.00
2018-09-17T20:20:29.769Z,45.20
2018-09-17T20:23:05.178Z,24.07
2018-09-17T20:25:41.038Z,63.90
2018-09-17T20:28:16.353Z,97.30
2018-09-17T20:30:52.241Z,56.37
2018-09-17T20:33:32.669Z,73.40
2018-09-17T20:36:08.289Z,82.15
2018-09-17T20:38:43.720Z,78.90
2018-09-17T20:41:19.873Z,65.20
2018-09-17T20:43:55.385Z,67.37
2018-09-17T20:46:30.778Z,44.55
2018-09-17T20:49:06.152Z,69.47
2018-09-17T20:51:41.725Z,66.47
2018-09-17T20:54:17.760Z,64.55
2018-09-17T20:56:53.343Z,33.98
2018-09-17T20:59:28.554Z,72.82
2018-09-17T21:02:04.555Z,73.20
2018-09-17T21:04:39.917Z,49.40
2018-09-17T21:07:15.699Z,98.90
2018-09-17T21:09:51.097Z,72.90
2018-09-17T21:12:26.655Z,83.37
2018-09-17T21:15:02.173Z,103.72
2018-09-17T21:17:37.621Z,75.95
2018-09-17T21:20:13.235Z,40.50
2018-09-17T21:22:48.601Z,53.83
2018-09-17T21:25:24.125Z,81.02
2018-09-17T21:27:59.633Z,107.70
2018-09-17T21:30:35.041Z,71.77
2018-09-17T21:33:10.589Z,48.90
2018-09-17T21:35:45.940Z,76.97
2018-09-17T21:38:21.585Z,56.20
2018-09-17T21:40:56.881Z,90.47
2018-09-17T21:43:32.990Z,75.03
2018-09-17T21:46:09.125Z,55.35
2018-09-17T21:48:44.700Z,43.25
2018-09-17T21:51:20.281Z,38.67
2018-09-17T21:53:55.881Z,35.03
2018-09-17T21:56:31.320Z,25.20
2018-09-17T21:59:06.854Z,50.85
2018-09-17T22:01:42.212Z,35.65
2018-09-17T22:04:17.624Z,39.90
2018-09-17T22:06:53.113Z,20.85
2018-09-17T22:09:28.768Z,31.85
2018-09-17T22:12:04.149Z,40.73
2018-09-17T22:14:39.655Z,38.95
2018-09-17T22:17:15.180Z,33.15
2018-09-17T22:19:51.135Z,32.15
2018-09-17T22:22:26.412Z,35.63
2018-09-17T22:25:02.570Z,32.10
2018-09-17T22:27:38.025Z,24.80
2018-09-17T22:30:13.629Z,30.17
2018-09-17T22:32:48.877Z,17.85
2018-09-17T22:35:24.450Z,29.30
2018-09-17T22:37:59.665Z,18.77
2018-09-17T22:40:35.134Z,18.05
2018-09-17T22:43:10.534Z,17.20
2018-09-17T22:45:46.333Z,14.55
2018-09-17T22:48:21.760Z,24.32
2018-09-17T22:50:57.288Z,19.92
2018-09-17T22:53:32.747Z,22.87
2018-09-17T22:56:14.872Z,19.77
2018-09-17T22:58:50.338Z,15.30
2018-09-17T23:01:25.964Z,18.27
2018-09-17T23:04:01.248Z,16.87
2018-09-17T23:06:36.639Z,14.33
2018-09-17T23:09:12.331Z,10.63
2018-09-17T23:11:47.914Z,10.85
2018-09-17T23:14:23.373Z,12.73
2018-09-17T23:16:59.044Z,20.45
2018-09-17T23:19:34.592Z,15.05
2018-09-17T23:22:10.204Z,17.87
2018-09-17T23:24:45.520Z,16.48
2018-09-17T23:27:21.242Z,16.37
2018-09-17T23:29:56.621Z,13.13
2018-09-17T23:32:32.023Z,12.68
2018-09-17T23:35:07.638Z,13.38
2018-09-17T23:37:49.766Z,11.10
2018-09-17T23:40:25.068Z,18.02
2018-09-17T23:43:00.561Z,11.48
2018-09-17T23:45:36.047Z,11.30
2018-09-17T23:48:11.656Z,11.00
2018-09-17T23:50:53.306Z,9.95
2018-09-17T23:53:28.803Z,10.75
2018-09-17T23:56:04.180Z,10.58
2018-09-17T23:58:39.815Z,9.70
